sensor_id;sensor_type;location;lat;lon;timestamp;P1;durP1;ratioP1;P2;durP2;ratioP2
55641;SDS011;41509;53.108;6.100;2023-06-22T00:04:39;16.65;;;11.18;;
55641;SDS011;41509;53.108;6.100;2023-06-22T00:07:05;17.55;;;11.68;;
55641;SDS011;41509;53.108;6.100;2023-06-22T00:09:31;20.90;;;12.73;;
55641;SDS011;41509;53.108;6.100;2023-06-22T00:12:05;18.63;;;12.10;;
55641;SDS011;41509;53.108;6.100;2023-06-22T00:16:57;22.30;;;12.10;;
55641;SDS011;41509;53.108;6.100;2023-06-22T00:19:24;23.58;;;12.43;;
55641;SDS011;41509;53.108;6.100;2023-06-22T00:21:50;24.17;;;12.13;;
55641;SDS011;41509;53.108;6.100;2023-06-22T00:24:19;16.92;;;12.40;;
55641;SDS011;41509;53.108;6.100;2023-06-22T00:26:49;20.92;;;13.35;;
55641;SDS011;41509;53.108;6.100;2023-06-22T00:29:15;20.38;;;13.43;;
55641;SDS011;41509;53.108;6.100;2023-06-22T00:31:40;20.27;;;13.48;;
55641;SDS011;41509;53.108;6.100;2023-06-22T00:34:06;19.90;;;13.50;;
55641;SDS011;41509;53.108;6.100;2023-06-22T00:36:33;23.00;;;14.63;;
55641;SDS011;41509;53.108;6.100;2023-06-22T00:38:59;21.83;;;13.50;;
55641;SDS011;41509;53.108;6.100;2023-06-22T00:41:25;22.45;;;14.07;;
55641;SDS011;41509;53.108;6.100;2023-06-22T00:43:53;22.70;;;13.00;;
55641;SDS011;41509;53.108;6.100;2023-06-22T00:46:19;20.70;;;13.02;;
55641;SDS011;41509;53.108;6.100;2023-06-22T00:48:46;21.55;;;14.25;;
55641;SDS011;41509;53.108;6.100;2023-06-22T00:51:11;20.42;;;13.35;;
55641;SDS011;41509;53.108;6.100;2023-06-22T00:53:39;22.17;;;13.35;;
55641;SDS011;41509;53.108;6.100;2023-06-22T00:56:06;21.27;;;13.45;;
55641;SDS011;41509;53.108;6.100;2023-06-22T00:58:33;21.40;;;13.07;;
55641;SDS011;41509;53.108;6.100;2023-06-22T01:01:01;20.98;;;13.48;;
55641;SDS011;41509;53.108;6.100;2023-06-22T01:03:27;20.25;;;13.25;;
55641;SDS011;41509;53.108;6.100;2023-06-22T01:05:54;22.02;;;13.40;;
55641;SDS011;41509;53.108;6.100;2023-06-22T01:08:39;22.17;;;13.80;;
55641;SDS011;41509;53.108;6.100;2023-06-22T01:11:33;22.42;;;13.48;;
55641;SDS011;41509;53.108;6.100;2023-06-22T01:14:06;22.48;;;12.57;;
55641;SDS011;41509;53.108;6.100;2023-06-22T01:16:40;20.33;;;13.15;;
55641;SDS011;41509;53.108;6.100;2023-06-22T01:19:11;18.50;;;13.25;;
55641;SDS011;41509;53.108;6.100;2023-06-22T01:21:54;21.67;;;13.27;;
55641;SDS011;41509;53.108;6.100;2023-06-22T01:24:30;23.35;;;13.63;;
55641;SDS011;41509;53.108;6.100;2023-06-22T01:27:24;18.05;;;12.57;;
55641;SDS011;41509;53.108;6.100;2023-06-22T01:29:58;21.05;;;13.13;;
55641;SDS011;41509;53.108;6.100;2023-06-22T01:32:33;19.65;;;12.07;;
55641;SDS011;41509;53.108;6.100;2023-06-22T01:35:03;19.85;;;13.18;;
55641;SDS011;41509;53.108;6.100;2023-06-22T01:37:32;19.10;;;12.93;;
55641;SDS011;41509;53.108;6.100;2023-06-22T01:39:59;22.90;;;13.57;;
55641;SDS011;41509;53.108;6.100;2023-06-22T01:42:29;20.02;;;13.52;;
55641;SDS011;41509;53.108;6.100;2023-06-22T01:44:55;18.95;;;13.40;;
55641;SDS011;41509;53.108;6.100;2023-06-22T01:47:22;17.70;;;12.52;;
55641;SDS011;41509;53.108;6.100;2023-06-22T01:49:52;18.00;;;12.60;;
55641;SDS011;41509;53.108;6.100;2023-06-22T01:54:46;15.48;;;11.00;;
55641;SDS011;41509;53.108;6.100;2023-06-22T01:57:13;15.80;;;11.73;;
55641;SDS011;41509;53.108;6.100;2023-06-22T01:59:45;16.75;;;11.85;;
55641;SDS011;41509;53.108;6.100;2023-06-22T02:02:25;16.90;;;12.00;;
55641;SDS011;41509;53.108;6.100;2023-06-22T02:05:08;18.50;;;12.52;;
55641;SDS011;41509;53.108;6.100;2023-06-22T02:07:44;15.85;;;12.38;;
55641;SDS011;41509;53.108;6.100;2023-06-22T02:10:15;17.02;;;12.20;;
55641;SDS011;41509;53.108;6.100;2023-06-22T02:12:44;15.85;;;12.40;;
55641;SDS011;41509;53.108;6.100;2023-06-22T02:15:11;18.50;;;12.93;;
55641;SDS011;41509;53.108;6.100;2023-06-22T02:17:38;17.08;;;12.55;;
55641;SDS011;41509;53.108;6.100;2023-06-22T02:20:03;17.92;;;12.70;;
55641;SDS011;41509;53.108;6.100;2023-06-22T02:22:33;18.35;;;12.77;;
55641;SDS011;41509;53.108;6.100;2023-06-22T02:24:59;19.83;;;13.65;;
55641;SDS011;41509;53.108;6.100;2023-06-22T02:27:25;18.50;;;12.90;;
55641;SDS011;41509;53.108;6.100;2023-06-22T02:29:51;16.73;;;12.07;;
55641;SDS011;41509;53.108;6.100;2023-06-22T02:32:16;18.27;;;12.27;;
55641;SDS011;41509;53.108;6.100;2023-06-22T02:34:43;18.13;;;12.25;;
55641;SDS011;41509;53.108;6.100;2023-06-22T02:37:12;17.77;;;12.77;;
55641;SDS011;41509;53.108;6.100;2023-06-22T02:39:41;17.40;;;12.98;;
55641;SDS011;41509;53.108;6.100;2023-06-22T02:42:07;18.83;;;13.15;;
55641;SDS011;41509;53.108;6.100;2023-06-22T02:44:32;16.23;;;12.02;;
55641;SDS011;41509;53.108;6.100;2023-06-22T02:46:58;17.77;;;12.52;;
55641;SDS011;41509;53.108;6.100;2023-06-22T02:49:24;20.23;;;12.77;;
55641;SDS011;41509;53.108;6.100;2023-06-22T02:51:50;18.60;;;12.73;;
55641;SDS011;41509;53.108;6.100;2023-06-22T02:54:15;17.35;;;11.82;;
55641;SDS011;41509;53.108;6.100;2023-06-22T02:56:41;15.98;;;12.13;;
55641;SDS011;41509;53.108;6.100;2023-06-22T02:59:09;18.55;;;12.73;;
55641;SDS011;41509;53.108;6.100;2023-06-22T03:01:35;17.77;;;13.13;;
55641;SDS011;41509;53.108;6.100;2023-06-22T03:04:08;18.60;;;13.15;;
55641;SDS011;41509;53.108;6.100;2023-06-22T03:06:34;17.50;;;12.60;;
55641;SDS011;41509;53.108;6.100;2023-06-22T03:09:01;21.48;;;13.75;;
55641;SDS011;41509;53.108;6.100;2023-06-22T03:11:33;21.40;;;13.27;;
55641;SDS011;41509;53.108;6.100;2023-06-22T03:13:59;19.77;;;12.80;;
55641;SDS011;41509;53.108;6.100;2023-06-22T03:16:26;22.13;;;12.68;;
55641;SDS011;41509;53.108;6.100;2023-06-22T03:18:51;18.38;;;13.45;;
55641;SDS011;41509;53.108;6.100;2023-06-22T03:21:22;22.58;;;12.73;;
55641;SDS011;41509;53.108;6.100;2023-06-22T03:23:48;20.52;;;13.68;;
55641;SDS011;41509;53.108;6.100;2023-06-22T03:26:16;23.45;;;13.25;;
55641;SDS011;41509;53.108;6.100;2023-06-22T03:28:42;17.67;;;13.38;;
55641;SDS011;41509;53.108;6.100;2023-06-22T03:31:08;16.80;;;12.60;;
55641;SDS011;41509;53.108;6.100;2023-06-22T03:33:34;18.02;;;12.63;;
55641;SDS011;41509;53.108;6.100;2023-06-22T03:35:59;19.05;;;13.52;;
55641;SDS011;41509;53.108;6.100;2023-06-22T03:38:28;15.30;;;11.13;;
55641;SDS011;41509;53.108;6.100;2023-06-22T03:40:53;19.05;;;12.93;;
55641;SDS011;41509;53.108;6.100;2023-06-22T03:43:19;16.95;;;12.48;;
55641;SDS011;41509;53.108;6.100;2023-06-22T03:45:45;19.25;;;12.98;;
55641;SDS011;41509;53.108;6.100;2023-06-22T03:48:11;19.77;;;12.35;;
55641;SDS011;41509;53.108;6.100;2023-06-22T03:53:03;22.92;;;13.90;;
55641;SDS011;41509;53.108;6.100;2023-06-22T03:55:28;21.50;;;13.52;;
55641;SDS011;41509;53.108;6.100;2023-06-22T03:57:55;18.88;;;13.43;;
55641;SDS011;41509;53.108;6.100;2023-06-22T04:00:22;21.88;;;13.45;;
55641;SDS011;41509;53.108;6.100;2023-06-22T04:02:48;19.13;;;13.65;;
55641;SDS011;41509;53.108;6.100;2023-06-22T04:05:14;20.35;;;14.00;;
55641;SDS011;41509;53.108;6.100;2023-06-22T04:07:42;19.00;;;12.82;;
55641;SDS011;41509;53.108;6.100;2023-06-22T04:10:08;16.35;;;12.32;;
55641;SDS011;41509;53.108;6.100;2023-06-22T04:12:34;16.10;;;11.38;;
55641;SDS011;41509;53.108;6.100;2023-06-22T04:14:59;16.00;;;10.93;;
55641;SDS011;41509;53.108;6.100;2023-06-22T04:17:25;14.75;;;11.18;;
55641;SDS011;41509;53.108;6.100;2023-06-22T04:19:51;13.27;;;9.70;;
55641;SDS011;41509;53.108;6.100;2023-06-22T04:22:17;14.63;;;11.38;;
55641;SDS011;41509;53.108;6.100;2023-06-22T04:24:43;18.02;;;11.50;;
55641;SDS011;41509;53.108;6.100;2023-06-22T04:27:09;18.63;;;12.30;;
55641;SDS011;41509;53.108;6.100;2023-06-22T04:29:35;15.10;;;11.00;;
55641;SDS011;41509;53.108;6.100;2023-06-22T04:32:01;15.77;;;12.00;;
55641;SDS011;41509;53.108;6.100;2023-06-22T04:34:30;14.82;;;11.00;;
55641;SDS011;41509;53.108;6.100;2023-06-22T04:36:56;17.95;;;11.57;;
55641;SDS011;41509;53.108;6.100;2023-06-22T04:39:23;14.70;;;11.30;;
55641;SDS011;41509;53.108;6.100;2023-06-22T04:41:49;15.82;;;11.68;;
55641;SDS011;41509;53.108;6.100;2023-06-22T04:44:17;17.38;;;11.68;;
55641;SDS011;41509;53.108;6.100;2023-06-22T04:46:49;20.20;;;12.40;;
55641;SDS011;41509;53.108;6.100;2023-06-22T04:49:33;17.90;;;12.40;;
55641;SDS011;41509;53.108;6.100;2023-06-22T04:52:07;18.58;;;12.88;;
55641;SDS011;41509;53.108;6.100;2023-06-22T04:54:35;15.60;;;11.75;;
55641;SDS011;41509;53.108;6.100;2023-06-22T04:57:02;19.23;;;12.90;;
55641;SDS011;41509;53.108;6.100;2023-06-22T04:59:35;14.68;;;10.90;;
55641;SDS011;41509;53.108;6.100;2023-06-22T05:02:04;18.42;;;11.73;;
55641;SDS011;41509;53.108;6.100;2023-06-22T05:04:33;17.05;;;12.50;;
55641;SDS011;41509;53.108;6.100;2023-06-22T05:07:00;18.65;;;13.77;;
55641;SDS011;41509;53.108;6.100;2023-06-22T05:09:27;20.45;;;13.95;;
55641;SDS011;41509;53.108;6.100;2023-06-22T05:11:54;18.52;;;12.25;;
55641;SDS011;41509;53.108;6.100;2023-06-22T05:14:21;21.77;;;13.70;;
55641;SDS011;41509;53.108;6.100;2023-06-22T05:16:47;19.52;;;13.60;;
55641;SDS011;41509;53.108;6.100;2023-06-22T05:19:13;23.60;;;13.93;;
55641;SDS011;41509;53.108;6.100;2023-06-22T05:21:39;21.67;;;13.85;;
55641;SDS011;41509;53.108;6.100;2023-06-22T05:24:05;22.90;;;14.55;;
55641;SDS011;41509;53.108;6.100;2023-06-22T05:26:31;24.55;;;14.60;;
55641;SDS011;41509;53.108;6.100;2023-06-22T05:28:59;21.48;;;14.35;;
55641;SDS011;41509;53.108;6.100;2023-06-22T05:31:25;27.48;;;15.75;;
55641;SDS011;41509;53.108;6.100;2023-06-22T05:33:51;23.90;;;15.45;;
55641;SDS011;41509;53.108;6.100;2023-06-22T05:36:21;22.27;;;14.45;;
55641;SDS011;41509;53.108;6.100;2023-06-22T05:38:50;28.30;;;15.93;;
55641;SDS011;41509;53.108;6.100;2023-06-22T05:41:23;25.20;;;16.17;;
55641;SDS011;41509;53.108;6.100;2023-06-22T05:43:48;25.40;;;15.57;;
55641;SDS011;41509;53.108;6.100;2023-06-22T05:46:14;29.80;;;15.70;;
55641;SDS011;41509;53.108;6.100;2023-06-22T05:48:40;24.83;;;16.73;;
55641;SDS011;41509;53.108;6.100;2023-06-22T05:51:05;27.17;;;16.85;;
55641;SDS011;41509;53.108;6.100;2023-06-22T05:53:31;24.45;;;15.77;;
55641;SDS011;41509;53.108;6.100;2023-06-22T05:55:57;25.38;;;16.00;;
55641;SDS011;41509;53.108;6.100;2023-06-22T05:58:22;26.85;;;16.77;;
55641;SDS011;41509;53.108;6.100;2023-06-22T06:00:48;31.67;;;18.63;;
55641;SDS011;41509;53.108;6.100;2023-06-22T06:05:42;29.17;;;17.02;;
55641;SDS011;41509;53.108;6.100;2023-06-22T06:08:08;28.63;;;18.35;;
55641;SDS011;41509;53.108;6.100;2023-06-22T06:10:36;32.33;;;20.20;;
55641;SDS011;41509;53.108;6.100;2023-06-22T06:13:02;36.30;;;20.27;;
55641;SDS011;41509;53.108;6.100;2023-06-22T06:15:29;31.67;;;19.27;;
55641;SDS011;41509;53.108;6.100;2023-06-22T06:20:21;29.27;;;17.92;;
55641;SDS011;41509;53.108;6.100;2023-06-22T06:22:48;27.48;;;16.88;;
55641;SDS011;41509;53.108;6.100;2023-06-22T06:25:15;26.75;;;16.88;;
55641;SDS011;41509;53.108;6.100;2023-06-22T06:27:43;31.45;;;17.25;;
55641;SDS011;41509;53.108;6.100;2023-06-22T06:30:10;27.05;;;17.50;;
55641;SDS011;41509;53.108;6.100;2023-06-22T06:32:37;27.42;;;18.30;;
55641;SDS011;41509;53.108;6.100;2023-06-22T06:37:35;23.63;;;16.00;;
55641;SDS011;41509;53.108;6.100;2023-06-22T06:40:02;28.08;;;18.05;;
55641;SDS011;41509;53.108;6.100;2023-06-22T06:42:30;24.40;;;15.85;;
55641;SDS011;41509;53.108;6.100;2023-06-22T06:44:56;25.23;;;16.27;;
55641;SDS011;41509;53.108;6.100;2023-06-22T06:47:22;29.27;;;17.92;;
55641;SDS011;41509;53.108;6.100;2023-06-22T06:49:48;25.65;;;17.05;;
55641;SDS011;41509;53.108;6.100;2023-06-22T06:52:14;30.42;;;17.45;;
55641;SDS011;41509;53.108;6.100;2023-06-22T06:54:39;23.60;;;16.33;;
55641;SDS011;41509;53.108;6.100;2023-06-22T06:57:07;26.17;;;17.27;;
55641;SDS011;41509;53.108;6.100;2023-06-22T06:59:35;24.73;;;15.85;;
55641;SDS011;41509;53.108;6.100;2023-06-22T07:02:01;27.05;;;16.45;;
55641;SDS011;41509;53.108;6.100;2023-06-22T07:04:27;22.27;;;14.68;;
55641;SDS011;41509;53.108;6.100;2023-06-22T07:06:52;25.58;;;15.15;;
55641;SDS011;41509;53.108;6.100;2023-06-22T07:09:18;28.15;;;15.63;;
55641;SDS011;41509;53.108;6.100;2023-06-22T07:11:44;23.20;;;16.05;;
55641;SDS011;41509;53.108;6.100;2023-06-22T07:14:09;25.35;;;15.95;;
55641;SDS011;41509;53.108;6.100;2023-06-22T07:16:35;22.75;;;15.48;;
55641;SDS011;41509;53.108;6.100;2023-06-22T07:19:01;22.92;;;15.52;;
55641;SDS011;41509;53.108;6.100;2023-06-22T07:21:26;24.08;;;15.13;;
55641;SDS011;41509;53.108;6.100;2023-06-22T07:23:52;25.05;;;15.57;;
55641;SDS011;41509;53.108;6.100;2023-06-22T07:26:19;28.10;;;17.30;;
55641;SDS011;41509;53.108;6.100;2023-06-22T07:28:44;22.50;;;15.20;;
55641;SDS011;41509;53.108;6.100;2023-06-22T07:31:10;25.48;;;14.55;;
55641;SDS011;41509;53.108;6.100;2023-06-22T07:33:36;23.45;;;13.98;;
55641;SDS011;41509;53.108;6.100;2023-06-22T07:36:02;21.77;;;13.68;;
55641;SDS011;41509;53.108;6.100;2023-06-22T07:38:32;23.45;;;14.30;;
55641;SDS011;41509;53.108;6.100;2023-06-22T07:40:58;22.65;;;14.10;;
55641;SDS011;41509;53.108;6.100;2023-06-22T07:43:24;24.52;;;14.60;;
55641;SDS011;41509;53.108;6.100;2023-06-22T07:45:50;24.40;;;14.43;;
55641;SDS011;41509;53.108;6.100;2023-06-22T07:48:22;22.33;;;13.88;;
55641;SDS011;41509;53.108;6.100;2023-06-22T07:50:48;23.75;;;14.70;;
55641;SDS011;41509;53.108;6.100;2023-06-22T07:55:40;19.75;;;11.60;;
55641;SDS011;41509;53.108;6.100;2023-06-22T07:58:05;18.88;;;11.60;;
55641;SDS011;41509;53.108;6.100;2023-06-22T08:00:33;18.70;;;11.98;;
55641;SDS011;41509;53.108;6.100;2023-06-22T08:02:59;23.67;;;14.32;;
55641;SDS011;41509;53.108;6.100;2023-06-22T08:05:25;20.23;;;13.55;;
55641;SDS011;41509;53.108;6.100;2023-06-22T08:10:16;18.77;;;12.23;;
55641;SDS011;41509;53.108;6.100;2023-06-22T08:15:08;21.25;;;13.45;;
55641;SDS011;41509;53.108;6.100;2023-06-22T08:17:36;19.77;;;12.35;;
55641;SDS011;41509;53.108;6.100;2023-06-22T08:20:02;17.42;;;10.60;;
55641;SDS011;41509;53.108;6.100;2023-06-22T08:22:34;17.25;;;10.70;;
55641;SDS011;41509;53.108;6.100;2023-06-22T08:25:01;20.02;;;11.18;;
55641;SDS011;41509;53.108;6.100;2023-06-22T08:27:28;17.92;;;10.57;;
55641;SDS011;41509;53.108;6.100;2023-06-22T08:29:56;18.55;;;11.10;;
55641;SDS011;41509;53.108;6.100;2023-06-22T08:32:26;20.20;;;10.82;;
55641;SDS011;41509;53.108;6.100;2023-06-22T08:34:53;12.82;;;8.98;;
55641;SDS011;41509;53.108;6.100;2023-06-22T08:37:19;14.90;;;7.57;;
55641;SDS011;41509;53.108;6.100;2023-06-22T08:42:11;12.98;;;8.52;;
55641;SDS011;41509;53.108;6.100;2023-06-22T08:47:03;14.90;;;7.82;;
55641;SDS011;41509;53.108;6.100;2023-06-22T08:51:54;12.05;;;7.13;;
55641;SDS011;41509;53.108;6.100;2023-06-22T08:54:21;12.52;;;7.72;;
55641;SDS011;41509;53.108;6.100;2023-06-22T08:59:13;11.80;;;7.28;;
55641;SDS011;41509;53.108;6.100;2023-06-22T09:04:04;14.93;;;7.43;;
55641;SDS011;41509;53.108;6.100;2023-06-22T09:06:32;9.73;;;6.40;;
55641;SDS011;41509;53.108;6.100;2023-06-22T09:11:26;10.60;;;6.35;;
55641;SDS011;41509;53.108;6.100;2023-06-22T09:16:18;11.32;;;6.72;;
55641;SDS011;41509;53.108;6.100;2023-06-22T09:21:13;10.02;;;6.32;;
55641;SDS011;41509;53.108;6.100;2023-06-22T09:26:04;8.43;;;5.75;;
55641;SDS011;41509;53.108;6.100;2023-06-22T09:30:56;15.40;;;7.07;;
55641;SDS011;41509;53.108;6.100;2023-06-22T09:33:23;11.90;;;7.28;;
55641;SDS011;41509;53.108;6.100;2023-06-22T09:35:50;11.48;;;6.72;;
55641;SDS011;41509;53.108;6.100;2023-06-22T09:38:16;19.95;;;11.43;;
55641;SDS011;41509;53.108;6.100;2023-06-22T09:40:42;11.73;;;6.30;;
55641;SDS011;41509;53.108;6.100;2023-06-22T09:43:08;9.57;;;6.38;;
55641;SDS011;41509;53.108;6.100;2023-06-22T09:47:59;10.40;;;6.28;;
55641;SDS011;41509;53.108;6.100;2023-06-22T09:50:25;10.23;;;7.07;;
55641;SDS011;41509;53.108;6.100;2023-06-22T09:52:50;9.75;;;6.25;;
55641;SDS011;41509;53.108;6.100;2023-06-22T09:55:20;9.80;;;6.40;;
55641;SDS011;41509;53.108;6.100;2023-06-22T09:57:46;10.05;;;6.65;;
55641;SDS011;41509;53.108;6.100;2023-06-22T10:00:12;12.90;;;7.07;;
55641;SDS011;41509;53.108;6.100;2023-06-22T10:02:40;8.85;;;5.38;;
55641;SDS011;41509;53.108;6.100;2023-06-22T10:05:06;9.13;;;5.85;;
55641;SDS011;41509;53.108;6.100;2023-06-22T10:07:33;7.88;;;5.22;;
55641;SDS011;41509;53.108;6.100;2023-06-22T10:09:58;7.90;;;5.57;;
55641;SDS011;41509;53.108;6.100;2023-06-22T10:12:26;10.30;;;6.30;;
55641;SDS011;41509;53.108;6.100;2023-06-22T10:14:52;8.77;;;6.13;;
55641;SDS011;41509;53.108;6.100;2023-06-22T10:17:18;8.27;;;5.68;;
55641;SDS011;41509;53.108;6.100;2023-06-22T10:19:44;9.23;;;5.18;;
55641;SDS011;41509;53.108;6.100;2023-06-22T10:22:09;7.13;;;5.25;;
55641;SDS011;41509;53.108;6.100;2023-06-22T10:24:35;10.73;;;5.47;;
55641;SDS011;41509;53.108;6.100;2023-06-22T10:27:01;7.85;;;4.60;;
55641;SDS011;41509;53.108;6.100;2023-06-22T10:29:26;7.68;;;4.65;;
55641;SDS011;41509;53.108;6.100;2023-06-22T10:31:52;6.40;;;4.20;;
55641;SDS011;41509;53.108;6.100;2023-06-22T10:34:18;8.63;;;4.60;;
55641;SDS011;41509;53.108;6.100;2023-06-22T10:36:43;6.35;;;4.10;;
55641;SDS011;41509;53.108;6.100;2023-06-22T10:39:12;6.97;;;4.03;;
55641;SDS011;41509;53.108;6.100;2023-06-22T10:41:37;8.38;;;4.53;;
55641;SDS011;41509;53.108;6.100;2023-06-22T10:44:03;6.32;;;3.90;;
55641;SDS011;41509;53.108;6.100;2023-06-22T10:46:29;6.13;;;3.53;;
55641;SDS011;41509;53.108;6.100;2023-06-22T10:48:54;6.05;;;3.88;;
55641;SDS011;41509;53.108;6.100;2023-06-22T10:51:22;5.75;;;3.50;;
55641;SDS011;41509;53.108;6.100;2023-06-22T10:53:47;5.35;;;3.67;;
55641;SDS011;41509;53.108;6.100;2023-06-22T10:56:13;6.18;;;3.67;;
55641;SDS011;41509;53.108;6.100;2023-06-22T10:58:39;6.97;;;3.50;;
55641;SDS011;41509;53.108;6.100;2023-06-22T11:01:04;7.20;;;3.88;;
55641;SDS011;41509;53.108;6.100;2023-06-22T11:03:30;7.47;;;3.97;;
55641;SDS011;41509;53.108;6.100;2023-06-22T11:05:56;5.55;;;3.40;;
55641;SDS011;41509;53.108;6.100;2023-06-22T11:08:21;6.65;;;3.58;;
55641;SDS011;41509;53.108;6.100;2023-06-22T11:10:47;10.02;;;3.25;;
55641;SDS011;41509;53.108;6.100;2023-06-22T11:13:13;5.97;;;3.65;;
55641;SDS011;41509;53.108;6.100;2023-06-22T11:15:38;4.18;;;2.90;;
55641;SDS011;41509;53.108;6.100;2023-06-22T11:18:04;5.80;;;3.30;;
55641;SDS011;41509;53.108;6.100;2023-06-22T11:20:32;5.38;;;3.00;;
55641;SDS011;41509;53.108;6.100;2023-06-22T11:22:59;7.03;;;3.10;;
55641;SDS011;41509;53.108;6.100;2023-06-22T11:25:25;4.82;;;2.55;;
55641;SDS011;41509;53.108;6.100;2023-06-22T11:27:51;5.88;;;3.30;;
55641;SDS011;41509;53.108;6.100;2023-06-22T11:30:18;6.00;;;3.15;;
55641;SDS011;41509;53.108;6.100;2023-06-22T11:32:45;6.78;;;3.45;;
55641;SDS011;41509;53.108;6.100;2023-06-22T11:35:10;6.43;;;3.45;;
55641;SDS011;41509;53.108;6.100;2023-06-22T11:37:36;5.35;;;2.85;;
55641;SDS011;41509;53.108;6.100;2023-06-22T11:40:02;3.83;;;2.63;;
55641;SDS011;41509;53.108;6.100;2023-06-22T11:42:30;6.25;;;3.13;;
55641;SDS011;41509;53.108;6.100;2023-06-22T11:44:56;4.30;;;2.90;;
55641;SDS011;41509;53.108;6.100;2023-06-22T11:47:21;4.70;;;3.20;;
55641;SDS011;41509;53.108;6.100;2023-06-22T11:49:47;5.05;;;3.03;;
55641;SDS011;41509;53.108;6.100;2023-06-22T11:52:13;6.43;;;3.47;;
55641;SDS011;41509;53.108;6.100;2023-06-22T11:54:38;5.20;;;2.90;;
55641;SDS011;41509;53.108;6.100;2023-06-22T11:57:04;5.47;;;3.10;;
55641;SDS011;41509;53.108;6.100;2023-06-22T11:59:30;4.75;;;3.13;;
55641;SDS011;41509;53.108;6.100;2023-06-22T12:01:56;4.55;;;2.80;;
55641;SDS011;41509;53.108;6.100;2023-06-22T12:04:23;7.15;;;4.18;;
55641;SDS011;41509;53.108;6.100;2023-06-22T12:06:49;4.88;;;3.08;;
55641;SDS011;41509;53.108;6.100;2023-06-22T12:09:14;5.57;;;3.40;;
55641;SDS011;41509;53.108;6.100;2023-06-22T12:11:40;8.32;;;3.88;;
55641;SDS011;41509;53.108;6.100;2023-06-22T12:14:06;5.88;;;3.35;;
55641;SDS011;41509;53.108;6.100;2023-06-22T12:16:31;8.27;;;3.72;;
55641;SDS011;41509;53.108;6.100;2023-06-22T12:18:57;6.25;;;3.55;;
55641;SDS011;41509;53.108;6.100;2023-06-22T12:21:23;7.15;;;3.42;;
55641;SDS011;41509;53.108;6.100;2023-06-22T12:23:48;5.78;;;3.53;;
55641;SDS011;41509;53.108;6.100;2023-06-22T12:26:14;6.72;;;4.00;;
55641;SDS011;41509;53.108;6.100;2023-06-22T12:28:40;8.30;;;5.10;;
55641;SDS011;41509;53.108;6.100;2023-06-22T12:31:06;7.20;;;4.38;;
55641;SDS011;41509;53.108;6.100;2023-06-22T12:33:32;6.65;;;4.22;;
55641;SDS011;41509;53.108;6.100;2023-06-22T12:35:57;8.32;;;5.10;;
55641;SDS011;41509;53.108;6.100;2023-06-22T12:38:23;6.22;;;4.40;;
55641;SDS011;41509;53.108;6.100;2023-06-22T12:40:51;7.13;;;4.13;;
55641;SDS011;41509;53.108;6.100;2023-06-22T12:43:17;4.72;;;3.38;;
55641;SDS011;41509;53.108;6.100;2023-06-22T12:45:43;6.53;;;4.35;;
55641;SDS011;41509;53.108;6.100;2023-06-22T12:48:09;6.07;;;3.80;;
55641;SDS011;41509;53.108;6.100;2023-06-22T12:50:34;7.13;;;3.97;;
55641;SDS011;41509;53.108;6.100;2023-06-22T12:53:00;10.07;;;4.22;;
55641;SDS011;41509;53.108;6.100;2023-06-22T12:55:28;5.85;;;3.85;;
55641;SDS011;41509;53.108;6.100;2023-06-22T12:57:53;7.68;;;4.22;;
55641;SDS011;41509;53.108;6.100;2023-06-22T13:00:19;6.78;;;4.03;;
55641;SDS011;41509;53.108;6.100;2023-06-22T13:02:45;7.53;;;3.38;;
55641;SDS011;41509;53.108;6.100;2023-06-22T13:05:11;7.22;;;4.32;;
55641;SDS011;41509;53.108;6.100;2023-06-22T13:07:37;8.40;;;4.22;;
55641;SDS011;41509;53.108;6.100;2023-06-22T13:10:02;6.68;;;4.15;;
55641;SDS011;41509;53.108;6.100;2023-06-22T13:12:28;7.38;;;4.65;;
55641;SDS011;41509;53.108;6.100;2023-06-22T13:14:54;6.88;;;3.80;;
55641;SDS011;41509;53.108;6.100;2023-06-22T13:17:20;5.57;;;4.22;;
55641;SDS011;41509;53.108;6.100;2023-06-22T13:19:46;7.70;;;4.38;;
55641;SDS011;41509;53.108;6.100;2023-06-22T13:25:10;5.90;;;4.13;;
55641;SDS011;41509;53.108;6.100;2023-06-22T13:27:40;6.80;;;3.50;;
55641;SDS011;41509;53.108;6.100;2023-06-22T13:30:07;5.70;;;3.50;;
55641;SDS011;41509;53.108;6.100;2023-06-22T13:32:34;8.35;;;3.30;;
55641;SDS011;41509;53.108;6.100;2023-06-22T13:35:00;6.70;;;3.72;;
55641;SDS011;41509;53.108;6.100;2023-06-22T13:37:25;5.00;;;2.78;;
55641;SDS011;41509;53.108;6.100;2023-06-22T13:39:52;5.63;;;2.95;;
55641;SDS011;41509;53.108;6.100;2023-06-22T13:42:18;5.97;;;3.30;;
55641;SDS011;41509;53.108;6.100;2023-06-22T13:44:43;3.92;;;2.58;;
55641;SDS011;41509;53.108;6.100;2023-06-22T13:47:09;4.53;;;2.58;;
55641;SDS011;41509;53.108;6.100;2023-06-22T13:49:35;5.47;;;2.38;;
55641;SDS011;41509;53.108;6.100;2023-06-22T13:52:00;3.20;;;2.00;;
55641;SDS011;41509;53.108;6.100;2023-06-22T13:54:28;2.65;;;1.77;;
55641;SDS011;41509;53.108;6.100;2023-06-22T13:56:54;4.38;;;2.10;;
55641;SDS011;41509;53.108;6.100;2023-06-22T13:59:19;3.42;;;2.10;;
55641;SDS011;41509;53.108;6.100;2023-06-22T14:01:46;3.45;;;1.90;;
55641;SDS011;41509;53.108;6.100;2023-06-22T14:04:12;4.22;;;1.90;;
55641;SDS011;41509;53.108;6.100;2023-06-22T14:06:37;4.43;;;2.20;;
55641;SDS011;41509;53.108;6.100;2023-06-22T14:09:03;2.65;;;1.63;;
55641;SDS011;41509;53.108;6.100;2023-06-22T14:11:29;2.85;;;1.85;;
55641;SDS011;41509;53.108;6.100;2023-06-22T14:13:54;4.80;;;1.80;;
55641;SDS011;41509;53.108;6.100;2023-06-22T14:16:20;2.70;;;2.08;;
55641;SDS011;41509;53.108;6.100;2023-06-22T14:18:46;2.30;;;1.40;;
55641;SDS011;41509;53.108;6.100;2023-06-22T14:23:37;3.65;;;1.80;;
55641;SDS011;41509;53.108;6.100;2023-06-22T14:26:03;4.88;;;1.60;;
55641;SDS011;41509;53.108;6.100;2023-06-22T14:28:29;2.28;;;1.35;;
55641;SDS011;41509;53.108;6.100;2023-06-22T14:30:54;2.65;;;1.20;;
55641;SDS011;41509;53.108;6.100;2023-06-22T14:33:21;2.35;;;1.35;;
55641;SDS011;41509;53.108;6.100;2023-06-22T14:35:47;2.40;;;1.30;;
55641;SDS011;41509;53.108;6.100;2023-06-22T14:38:13;2.50;;;1.02;;
55641;SDS011;41509;53.108;6.100;2023-06-22T14:43:04;2.25;;;1.20;;
55641;SDS011;41509;53.108;6.100;2023-06-22T14:47:55;3.95;;;1.08;;
55641;SDS011;41509;53.108;6.100;2023-06-22T14:52:46;2.83;;;1.40;;
55641;SDS011;41509;53.108;6.100;2023-06-22T14:55:12;2.30;;;0.90;;
55641;SDS011;41509;53.108;6.100;2023-06-22T14:57:37;2.60;;;1.30;;
55641;SDS011;41509;53.108;6.100;2023-06-22T15:00:04;2.35;;;1.33;;
55641;SDS011;41509;53.108;6.100;2023-06-22T15:02:31;3.83;;;1.27;;
55641;SDS011;41509;53.108;6.100;2023-06-22T15:04:57;2.65;;;1.30;;
55641;SDS011;41509;53.108;6.100;2023-06-22T15:09:48;1.80;;;1.17;;
55641;SDS011;41509;53.108;6.100;2023-06-22T15:12:14;2.25;;;1.10;;
55641;SDS011;41509;53.108;6.100;2023-06-22T15:17:06;1.70;;;1.05;;
55641;SDS011;41509;53.108;6.100;2023-06-22T15:19:34;2.05;;;1.15;;
55641;SDS011;41509;53.108;6.100;2023-06-22T15:22:06;2.95;;;1.20;;
55641;SDS011;41509;53.108;6.100;2023-06-22T15:24:32;1.95;;;1.00;;
55641;SDS011;41509;53.108;6.100;2023-06-22T15:26:59;3.67;;;1.25;;
55641;SDS011;41509;53.108;6.100;2023-06-22T15:29:24;3.90;;;1.42;;
55641;SDS011;41509;53.108;6.100;2023-06-22T15:31:51;1.45;;;0.85;;
55641;SDS011;41509;53.108;6.100;2023-06-22T15:34:17;3.30;;;1.15;;
55641;SDS011;41509;53.108;6.100;2023-06-22T15:36:43;2.25;;;0.93;;
55641;SDS011;41509;53.108;6.100;2023-06-22T15:41:35;3.03;;;0.70;;
55641;SDS011;41509;53.108;6.100;2023-06-22T15:44:04;1.90;;;1.10;;